Time;durP1;ratioP1;P1;durP2;ratioP2;P2;SDS_P1;SDS_P2;PMS_P1;PMS_P2;Temp;Humidity;BMP_temperature;BMP_pressure;BME280_temperature;BME280_humidity;BME280_pressure;Samples;Min_cycle;Max_cycle;Signal;HPM_P1;HPM_P2
2023/12/06 00:02:13;0.00;0.00;0.62;0.00;0.00;0.62;3.20;1.87;;;19.10;24.30;;;;;;2265320;61;20501;-58
2023/12/06 00:04:58;0.00;0.00;0.62;0.00;0.00;0.62;2.77;1.80;;;19.10;24.40;;;;;;2269096;61;20832;-56
2023/12/06 00:07:43;0.00;0.00;0.62;0.00;0.00;0.62;3.20;2.13;;;19.10;24.40;;;;;;2268786;61;20925;-58
2023/12/06 00:10:28;0.00;0.00;0.62;0.00;0.00;0.62;3.10;2.03;;;19.10;24.40;;;;;;2269000;61;20825;-59
2023/12/06 00:13:12;0.00;0.00;0.62;0.00;0.00;0.62;2.33;1.87;;;19.10;24.40;;;;;;2265685;61;20378;-58
2023/12/06 00:15:58;0.00;0.00;0.62;0.00;0.00;0.62;3.00;1.73;;;19.10;24.30;;;;;;2268521;61;20829;-58
2023/12/06 00:18:45;0.00;0.00;0.62;0.00;0.00;0.62;2.97;2.03;;;19.10;24.40;;;;;;2265901;61;20363;-58
2023/12/06 00:21:30;0.00;0.00;0.62;0.00;0.00;0.62;2.50;1.83;;;19.10;24.30;;;;;;2269155;61;20428;-58
2023/12/06 00:24:15;0.00;0.00;0.62;0.00;0.00;0.62;2.67;1.50;;;19.10;24.30;;;;;;2268782;61;20390;-60
2023/12/06 00:27:00;0.00;0.00;0.62;0.00;0.00;0.62;3.10;2.20;;;19.10;24.30;;;;;;2268986;61;20397;-60
2023/12/06 00:29:44;0.00;0.00;0.62;0.00;0.00;0.62;2.20;1.50;;;19.10;24.30;;;;;;2268669;61;20413;-59
2023/12/06 00:32:30;0.00;0.00;0.62;0.00;0.00;0.62;3.50;2.83;;;19.10;24.30;;;;;;2268690;61;20387;-55
2023/12/06 00:35:15;0.00;0.00;0.62;0.00;0.00;0.62;3.27;2.97;;;19.20;24.40;;;;;;2269139;61;20383;-59
2023/12/06 00:38:00;0.00;0.00;0.62;0.00;0.00;0.62;2.33;1.80;;;19.10;24.40;;;;;;2265284;61;20359;-57
2023/12/06 00:40:44;0.00;0.00;0.62;0.00;0.00;0.62;2.93;1.43;;;19.10;24.40;;;;;;2268949;61;20398;-56
2023/12/06 00:43:29;0.00;0.00;0.62;0.00;0.00;0.62;3.00;1.83;;;19.20;24.40;;;;;;2268558;61;20950;-58
2023/12/06 00:46:13;0.00;0.00;0.62;0.00;0.00;0.62;2.40;1.73;;;19.10;24.40;;;;;;2265357;61;20899;-58
2023/12/06 00:49:00;0.00;0.00;0.62;0.00;0.00;0.62;1.70;1.30;;;19.20;24.40;;;;;;2268622;61;21017;-58
2023/12/06 00:51:44;0.00;0.00;0.62;0.00;0.00;0.62;2.53;1.60;;;19.10;24.30;;;;;;2268300;61;20371;-59
2023/12/06 00:54:29;0.00;0.00;0.62;0.00;0.00;0.62;2.90;1.97;;;19.10;24.30;;;;;;2265634;61;20437;-59
2023/12/06 00:57:14;0.00;0.00;0.62;0.00;0.00;0.62;1.93;1.43;;;19.20;24.40;;;;;;2265739;61;20907;-56
2023/12/06 00:59:58;0.00;0.00;0.62;0.00;0.00;0.62;2.83;1.97;;;19.20;24.40;;;;;;2268578;61;20379;-62
2023/12/06 01:02:43;0.00;0.00;0.62;0.00;0.00;0.62;1.73;1.10;;;19.20;24.40;;;;;;2268585;61;20479;-59
2023/12/06 01:05:28;0.00;0.00;0.62;0.00;0.00;0.62;2.10;1.53;;;19.10;24.40;;;;;;2268948;61;20930;-57
2023/12/06 01:08:13;0.00;0.00;0.62;0.00;0.00;0.62;1.93;1.30;;;19.20;24.40;;;;;;2268456;61;20425;-61
2023/12/06 01:10:58;0.00;0.00;0.62;0.00;0.00;0.62;2.83;1.83;;;19.20;24.90;;;;;;2268772;61;20425;-57
2023/12/06 01:13:42;0.00;0.00;0.62;0.00;0.00;0.62;1.90;1.30;;;19.20;24.40;;;;;;2268641;61;20383;-55
2023/12/06 01:16:27;0.00;0.00;0.62;0.00;0.00;0.62;2.40;1.47;;;19.20;24.40;;;;;;2268896;61;20398;-58
2023/12/06 01:19:13;0.00;0.00;0.62;0.00;0.00;0.62;2.00;1.50;;;19.20;24.40;;;;;;2268819;61;20413;-54
2023/12/06 01:21:59;0.00;0.00;0.62;0.00;0.00;0.62;1.70;1.13;;;19.20;24.40;;;;;;2268025;61;20363;-53
2023/12/06 01:24:44;0.00;0.00;0.62;0.00;0.00;0.62;2.13;1.60;;;19.20;24.40;;;;;;2268909;61;20367;-55
2023/12/06 01:27:28;0.00;0.00;0.62;0.00;0.00;0.62;1.97;1.27;;;19.20;24.40;;;;;;2268819;61;20802;-55
2023/12/06 01:30:13;0.00;0.00;0.62;0.00;0.00;0.62;2.53;1.40;;;19.20;24.40;;;;;;2268436;61;20413;-57
2023/12/06 01:32:58;0.00;0.00;0.62;0.00;0.00;0.62;2.00;1.27;;;19.20;24.40;;;;;;2265296;61;20383;-59
2023/12/06 01:35:42;0.00;0.00;0.62;0.00;0.00;0.62;2.20;1.60;;;19.20;24.40;;;;;;2268790;61;20927;-57
2023/12/06 01:38:28;0.00;0.00;0.62;0.00;0.00;0.62;1.80;1.30;;;19.20;24.40;;;;;;2265321;61;20450;-56
2023/12/06 01:41:13;0.00;0.00;0.62;0.00;0.00;0.62;1.80;1.30;;;19.20;24.40;;;;;;2268861;61;20768;-55
2023/12/06 01:43:57;0.00;0.00;0.62;0.00;0.00;0.62;2.40;1.57;;;19.20;24.40;;;;;;2268158;61;20466;-61
2023/12/06 01:46:42;0.00;0.00;0.62;0.00;0.00;0.62;1.93;1.40;;;19.20;24.40;;;;;;2268717;61;20359;-60
2023/12/06 01:49:27;0.00;0.00;0.62;0.00;0.00;0.62;2.30;1.30;;;19.20;24.40;;;;;;2265579;61;20764;-55
2023/12/06 01:52:12;0.00;0.00;0.62;0.00;0.00;0.62;2.43;1.53;;;19.20;24.40;;;;;;2267856;61;20466;-59
2023/12/06 01:54:58;0.00;0.00;0.62;0.00;0.00;0.62;2.40;1.60;;;19.20;24.40;;;;;;2268618;61;20371;-59
2023/12/06 01:57:43;0.00;0.00;0.62;0.00;0.00;0.62;2.20;1.50;;;19.20;24.50;;;;;;2265231;61;20441;-57
2023/12/06 02:00:28;0.00;0.00;0.62;0.00;0.00;0.62;2.30;1.27;;;19.20;24.40;;;;;;2268019;61;20367;-54
2023/12/06 02:03:15;0.00;0.00;0.62;0.00;0.00;0.62;1.83;1.20;;;19.20;24.40;;;;;;2263729;61;20382;-57
2023/12/06 02:06:00;0.00;0.00;0.62;0.00;0.00;0.62;2.57;1.30;;;19.20;24.40;;;;;;2268353;61;20676;-57
2023/12/06 02:08:46;0.00;0.00;0.62;0.00;0.00;0.62;1.67;1.20;;;19.20;24.40;;;;;;2268852;61;20393;-54
2023/12/06 02:11:32;0.00;0.00;0.62;0.00;0.00;0.62;1.80;1.23;;;19.20;24.40;;;;;;2268464;61;21044;-62
2023/12/06 02:14:17;0.00;0.00;0.62;0.00;0.00;0.62;1.87;1.17;;;19.20;24.40;;;;;;2271078;61;20398;-57
2023/12/06 02:17:05;0.00;0.00;0.62;0.00;0.00;0.62;1.80;1.30;;;19.20;24.40;;;;;;2272756;61;20390;-52
2023/12/06 02:19:51;0.00;0.00;0.62;0.00;0.00;0.62;1.80;1.40;;;19.20;24.40;;;;;;2272692;61;20455;-59
2023/12/06 02:22:36;0.00;0.00;0.62;0.00;0.00;0.62;1.77;1.10;;;19.20;24.30;;;;;;2271903;61;20428;-54
2023/12/06 02:25:22;0.00;0.00;0.62;0.00;0.00;0.62;1.90;1.43;;;19.30;24.40;;;;;;2273000;61;20911;-55
2023/12/06 02:28:07;0.00;0.00;0.62;0.00;0.00;0.62;2.10;1.40;;;19.30;24.40;;;;;;2272094;61;20371;-59
2023/12/06 02:30:52;0.00;0.00;0.62;0.00;0.00;0.62;1.97;1.33;;;19.30;24.40;;;;;;2272736;61;20397;-57
2023/12/06 02:33:38;0.00;0.00;0.62;0.00;0.00;0.62;1.93;1.20;;;19.30;24.40;;;;;;2272204;61;20377;-53
2023/12/06 02:36:23;0.00;0.00;0.62;0.00;0.00;0.62;1.87;1.10;;;19.30;24.40;;;;;;2272245;61;20405;-56
2023/12/06 02:39:09;0.00;0.00;0.62;0.00;0.00;0.62;2.43;1.40;;;19.30;24.40;;;;;;2272810;61;20885;-52
2023/12/06 02:41:55;0.00;0.00;0.62;0.00;0.00;0.62;1.57;0.93;;;19.30;24.40;;;;;;2272282;61;20415;-59
2023/12/06 02:44:40;0.00;0.00;0.62;0.00;0.00;0.62;2.00;1.30;;;19.30;24.30;;;;;;2272294;61;20663;-55
2023/12/06 02:47:25;0.00;0.00;0.62;0.00;0.00;0.62;1.60;0.90;;;19.30;24.30;;;;;;2272791;61;20443;-58
2023/12/06 02:50:10;0.00;0.00;0.62;0.00;0.00;0.62;2.20;1.40;;;19.30;24.30;;;;;;2272244;61;20925;-55
2023/12/06 02:52:54;0.00;0.00;0.62;0.00;0.00;0.62;1.87;1.20;;;19.30;24.30;;;;;;2272263;61;20462;-57
2023/12/06 02:55:39;0.00;0.00;0.62;0.00;0.00;0.62;1.67;1.20;;;19.30;24.30;;;;;;2272332;61;20383;-52
2023/12/06 02:58:25;0.00;0.00;0.62;0.00;0.00;0.62;1.60;1.10;;;19.30;24.30;;;;;;2272330;61;20423;-53
2023/12/06 03:01:09;0.00;0.00;0.62;0.00;0.00;0.62;1.70;1.00;;;19.30;24.30;;;;;;2272654;61;20385;-55
2023/12/06 03:03:54;0.00;0.00;0.62;0.00;0.00;0.62;1.70;1.13;;;19.30;24.30;;;;;;2272334;61;20405;-58
2023/12/06 03:06:38;0.00;0.00;0.62;0.00;0.00;0.62;1.80;1.10;;;19.30;24.30;;;;;;2272229;61;20354;-52
2023/12/06 03:09:23;0.00;0.00;0.62;0.00;0.00;0.62;1.80;1.20;;;19.30;24.30;;;;;;2272359;61;20361;-54
2023/12/06 03:12:07;0.00;0.00;0.62;0.00;0.00;0.62;1.43;0.90;;;19.30;24.20;;;;;;2272084;61;20405;-60
2023/12/06 03:14:53;0.00;0.00;0.62;0.00;0.00;0.62;2.17;1.60;;;19.30;24.30;;;;;;2272761;61;20358;-54
2023/12/06 03:17:38;0.00;0.00;0.62;0.00;0.00;0.62;3.30;1.17;;;19.30;24.30;;;;;;2269232;61;20358;-56
2023/12/06 03:20:23;0.00;0.00;0.62;0.00;0.00;0.62;1.70;1.20;;;19.30;24.30;;;;;;2272059;61;20397;-58
2023/12/06 03:23:07;0.00;0.00;0.62;0.00;0.00;0.62;1.90;1.40;;;19.30;24.30;;;;;;2272271;61;20431;-54
2023/12/06 03:25:52;0.00;0.00;0.62;0.00;0.00;0.62;2.30;1.30;;;19.30;24.40;;;;;;2272529;61;20890;-57
2023/12/06 03:28:36;0.00;0.00;0.62;0.00;0.00;0.62;1.50;1.03;;;19.30;24.30;;;;;;2272055;61;20361;-55
2023/12/06 03:31:22;0.00;0.00;0.62;0.00;0.00;0.62;2.30;1.50;;;19.30;24.30;;;;;;2272661;61;20939;-55
2023/12/06 03:34:07;0.00;0.00;0.62;0.00;0.00;0.62;1.90;1.40;;;19.30;24.30;;;;;;2272556;61;21019;-58
2023/12/06 03:36:51;0.00;0.00;0.62;0.00;0.00;0.62;2.07;1.37;;;19.30;24.30;;;;;;2272307;61;20390;-57
2023/12/06 03:39:36;0.00;0.00;0.62;0.00;0.00;0.62;1.87;1.10;;;19.30;24.30;;;;;;2272540;61;20397;-58
2023/12/06 03:42:20;0.00;0.00;0.62;0.00;0.00;0.62;2.10;1.43;;;19.30;24.30;;;;;;2272093;61;20362;-54
2023/12/06 03:45:06;0.00;0.00;0.62;0.00;0.00;0.62;1.90;1.20;;;19.30;24.80;;;;;;2272380;61;20362;-55
2023/12/06 03:47:52;0.00;0.00;0.62;0.00;0.00;0.62;2.40;1.57;;;19.30;24.30;;;;;;2272625;61;20886;-54
2023/12/06 03:50:37;0.00;0.00;0.62;0.00;0.00;0.62;1.80;1.17;;;19.30;24.30;;;;;;2272052;61;20947;-58
2023/12/06 03:53:23;0.00;0.00;0.62;0.00;0.00;0.62;1.83;1.40;;;19.30;24.30;;;;;;2272396;61;20926;-53
2023/12/06 03:56:08;0.00;0.00;0.62;0.00;0.00;0.62;1.70;1.13;;;19.30;24.30;;;;;;2272435;61;20420;-55
2023/12/06 03:58:54;0.00;0.00;0.62;0.00;0.00;0.62;2.70;1.87;;;19.30;24.30;;;;;;2272397;61;20398;-58
2023/12/06 04:01:43;0.00;0.00;0.62;0.00;0.00;0.62;2.67;1.50;;;19.30;24.30;;;;;;2268957;61;20408;-55
2023/12/06 04:04:29;0.00;0.00;0.62;0.00;0.00;0.62;2.50;1.50;;;19.30;24.30;;;;;;2271661;61;20405;-58
2023/12/06 04:07:14;0.00;0.00;0.62;0.00;0.00;0.62;2.20;1.50;;;19.30;24.30;;;;;;2272429;61;20906;-55
2023/12/06 04:09:58;0.00;0.00;0.62;0.00;0.00;0.62;1.97;1.30;;;19.30;24.30;;;;;;2272410;61;20362;-56
2023/12/06 04:12:43;0.00;0.00;0.62;0.00;0.00;0.62;2.60;1.60;;;19.30;24.30;;;;;;2271156;61;20394;-59
2023/12/06 04:15:27;0.00;0.00;0.62;0.00;0.00;0.62;2.30;1.80;;;19.30;24.30;;;;;;2272527;61;20378;-57
2023/12/06 04:18:13;0.00;0.00;0.62;0.00;0.00;0.62;2.83;1.83;;;19.30;24.80;;;;;;2272209;61;20412;-62
2023/12/06 04:20:59;0.00;0.00;0.62;0.00;0.00;0.62;2.00;1.40;;;19.30;24.30;;;;;;2272179;61;20413;-60
2023/12/06 04:23:43;0.00;0.00;0.62;0.00;0.00;0.62;1.80;1.40;;;19.30;24.30;;;;;;2272245;61;20499;-60
2023/12/06 04:26:28;0.00;0.00;0.62;0.00;0.00;0.62;2.20;1.50;;;19.30;24.30;;;;;;2271956;61;20361;-55
2023/12/06 04:29:12;0.00;0.00;0.62;0.00;0.00;0.62;2.33;1.67;;;19.30;24.30;;;;;;2272457;61;20362;-55
2023/12/06 04:31:57;0.00;0.00;0.62;0.00;0.00;0.62;2.33;1.60;;;19.30;24.30;;;;;;2272020;61;20412;-54
2023/12/06 04:34:52;0.00;0.00;0.62;0.00;0.00;0.62;2.10;1.40;;;19.20;24.20;;;;;;2272441;61;20366;-54
2023/12/06 04:37:38;0.00;0.00;0.62;0.00;0.00;0.62;2.43;1.53;;;19.20;24.30;;;;;;2273170;61;20378;-57
2023/12/06 04:40:23;0.00;0.00;0.62;0.00;0.00;0.62;2.27;1.23;;;19.30;24.30;;;;;;2273147;61;20370;-58
2023/12/06 04:43:08;0.00;0.00;0.62;0.00;0.00;0.62;2.10;1.63;;;19.20;24.30;;;;;;2272266;61;20849;-55
2023/12/06 04:45:52;0.00;0.00;0.62;0.00;0.00;0.62;2.70;1.50;;;19.20;24.30;;;;;;2272966;61;20452;-59
2023/12/06 04:48:37;0.00;0.00;0.62;0.00;0.00;0.62;1.73;1.23;;;19.20;24.30;;;;;;2269425;61;20408;-58
2023/12/06 04:51:21;0.00;0.00;0.62;0.00;0.00;0.62;2.17;1.60;;;19.20;24.30;;;;;;2272923;61;20373;-58
2023/12/06 04:54:08;0.00;0.00;0.62;0.00;0.00;0.62;2.30;1.50;;;19.20;24.30;;;;;;2272971;61;20466;-57
2023/12/06 04:56:52;0.00;0.00;0.62;0.00;0.00;0.62;2.87;1.60;;;19.20;24.30;;;;;;2269520;61;20845;-57
2023/12/06 04:59:37;0.00;0.00;0.62;0.00;0.00;0.62;1.97;1.33;;;19.20;24.30;;;;;;2272986;61;20366;-59
2023/12/06 05:02:22;0.00;0.00;0.62;0.00;0.00;0.62;1.93;1.30;;;19.20;24.30;;;;;;2272766;61;20463;-54
2023/12/06 05:05:07;0.00;0.00;0.62;0.00;0.00;0.62;2.60;1.80;;;19.20;24.30;;;;;;2272501;61;20394;-54
2023/12/06 05:07:52;0.00;0.00;0.62;0.00;0.00;0.62;2.37;1.73;;;19.20;24.30;;;;;;2273112;61;20373;-54
2023/12/06 05:10:38;0.00;0.00;0.62;0.00;0.00;0.62;1.97;1.67;;;19.20;24.30;;;;;;2272806;61;20378;-56
2023/12/06 05:13:23;0.00;0.00;0.62;0.00;0.00;0.62;2.23;1.57;;;19.20;24.30;;;;;;2272577;61;20385;-55
2023/12/06 05:16:08;0.00;0.00;0.62;0.00;0.00;0.62;2.27;1.53;;;19.20;24.30;;;;;;2272904;61;20896;-60
2023/12/06 05:18:52;0.00;0.00;0.62;0.00;0.00;0.62;2.00;1.40;;;19.20;24.80;;;;;;2269329;61;20366;-58
2023/12/06 05:21:37;0.00;0.00;0.62;0.00;0.00;0.62;1.97;1.60;;;19.20;24.30;;;;;;2272826;61;20390;-58
2023/12/06 05:24:21;0.00;0.00;0.62;0.00;0.00;0.62;2.13;1.50;;;19.20;24.40;;;;;;2272971;61;20453;-59
2023/12/06 05:27:08;0.00;0.00;0.62;0.00;0.00;0.62;2.10;1.60;;;19.20;24.30;;;;;;2272541;61;20947;-58
2023/12/06 05:29:53;0.00;0.00;0.62;0.00;0.00;0.62;2.27;1.60;;;19.20;24.30;;;;;;2273196;61;20918;-56
2023/12/06 05:32:37;0.00;0.00;0.62;0.00;0.00;0.62;2.77;1.47;;;19.20;24.70;;;;;;2272672;61;20432;-54
2023/12/06 05:35:21;0.00;0.00;0.62;0.00;0.00;0.62;1.90;1.33;;;19.20;24.30;;;;;;2272755;61;20359;-53
2023/12/06 05:38:06;0.00;0.00;0.62;0.00;0.00;0.62;2.20;1.77;;;19.20;24.40;;;;;;2273094;61;20412;-56
2023/12/06 05:40:50;0.00;0.00;0.62;0.00;0.00;0.62;2.50;1.60;;;19.20;24.40;;;;;;2272583;61;21063;-54
2023/12/06 05:43:36;0.00;0.00;0.62;0.00;0.00;0.62;2.23;1.67;;;19.20;24.40;;;;;;2272494;60;20393;-58
2023/12/06 05:46:21;0.00;0.00;0.62;0.00;0.00;0.62;2.50;1.50;;;19.20;24.40;;;;;;2272978;61;20440;-60
2023/12/06 05:49:05;0.00;0.00;0.62;0.00;0.00;0.62;2.97;1.50;;;19.20;24.40;;;;;;2272782;61;20885;-57
2023/12/06 05:51:50;0.00;0.00;0.62;0.00;0.00;0.62;2.33;1.50;;;19.20;24.40;;;;;;2272534;61;20354;-58
2023/12/06 05:54:35;0.00;0.00;0.62;0.00;0.00;0.62;1.70;1.40;;;19.20;24.40;;;;;;2272937;61;20362;-53
2023/12/06 05:57:19;0.00;0.00;0.62;0.00;0.00;0.62;2.20;1.60;;;19.20;24.40;;;;;;2272503;61;20393;-68
2023/12/06 06:00:12;0.00;0.00;0.62;0.00;0.00;0.62;2.07;1.60;;;19.20;24.40;;;;;;2272811;61;20396;-55
2023/12/06 06:02:58;0.00;0.00;0.62;0.00;0.00;0.62;2.13;1.37;;;19.20;24.40;;;;;;2271981;61;20383;-56
2023/12/06 06:05:43;0.00;0.00;0.62;0.00;0.00;0.62;2.63;1.50;;;19.20;24.40;;;;;;2272851;61;20394;-56
2023/12/06 06:08:28;0.00;0.00;0.62;0.00;0.00;0.62;2.07;1.50;;;19.20;24.40;;;;;;2272681;61;20362;-55
2023/12/06 06:11:12;0.00;0.00;0.62;0.00;0.00;0.62;2.57;1.73;;;19.20;24.40;;;;;;2272293;61;20410;-52
2023/12/06 06:13:57;0.00;0.00;0.62;0.00;0.00;0.62;2.33;1.50;;;19.20;24.40;;;;;;2272620;61;20382;-60
2023/12/06 06:16:43;0.00;0.00;0.62;0.00;0.00;0.62;2.13;1.83;;;19.20;24.40;;;;;;2272764;61;20386;-59
2023/12/06 06:19:27;0.00;0.00;0.62;0.00;0.00;0.62;4.30;3.00;;;19.20;24.50;;;;;;2272611;61;20372;-58
2023/12/06 06:22:12;0.00;0.00;0.62;0.00;0.00;0.62;4.90;4.30;;;19.20;24.40;;;;;;2272614;61;20358;-57
2023/12/06 06:24:57;0.00;0.00;0.62;0.00;0.00;0.62;5.50;4.90;;;19.10;24.20;;;;;;2272388;61;20374;-57
2023/12/06 06:27:41;0.00;0.00;0.62;0.00;0.00;0.62;4.30;3.83;;;19.10;24.10;;;;;;2272795;61;20380;-59
2023/12/06 06:30:26;0.00;0.00;0.62;0.00;0.00;0.62;3.80;3.40;;;19.10;23.90;;;;;;2272839;61;20381;-55
2023/12/06 06:33:12;0.00;0.00;0.62;0.00;0.00;0.62;4.23;3.07;;;19.10;24.00;;;;;;2271895;61;20389;-59
2023/12/06 06:35:57;0.00;0.00;0.62;0.00;0.00;0.62;3.93;3.00;;;19.10;24.10;;;;;;2272611;61;20390;-63
2023/12/06 06:38:42;0.00;0.00;0.62;0.00;0.00;0.62;5.27;3.27;;;19.00;24.00;;;;;;2272535;61;20362;-56
2023/12/06 06:41:27;0.00;0.00;0.62;0.00;0.00;0.62;3.57;2.87;;;19.00;24.10;;;;;;2272258;61;20394;-55
2023/12/06 06:44:12;0.00;0.00;0.62;0.00;0.00;0.62;3.10;2.60;;;19.00;24.10;;;;;;2272640;61;20377;-56
2023/12/06 06:46:56;0.00;0.00;0.62;0.00;0.00;0.62;3.47;2.53;;;19.00;24.20;;;;;;2272168;61;20359;-58
2023/12/06 06:49:42;0.00;0.00;0.62;0.00;0.00;0.62;2.90;2.50;;;19.00;24.20;;;;;;2272676;61;20362;-58
2023/12/06 06:52:27;0.00;0.00;0.62;0.00;0.00;0.62;3.13;2.83;;;19.00;24.20;;;;;;2272071;61;21131;-57
2023/12/06 06:55:12;0.00;0.00;0.62;0.00;0.00;0.62;3.30;2.87;;;19.00;24.20;;;;;;2272444;60;20362;-55
2023/12/06 06:57:56;0.00;0.00;0.62;0.00;0.00;0.62;3.50;2.83;;;19.00;24.20;;;;;;2272565;61;20397;-59
2023/12/06 07:00:41;0.00;0.00;0.62;0.00;0.00;0.62;3.00;2.60;;;19.00;24.20;;;;;;2272591;61;20370;-58
2023/12/06 07:03:25;0.00;0.00;0.62;0.00;0.00;0.62;4.73;2.87;;;19.00;24.20;;;;;;2271665;61;20373;-57
2023/12/06 07:06:11;0.00;0.00;0.62;0.00;0.00;0.62;3.47;2.90;;;19.00;24.20;;;;;;2272659;61;20399;-55
2023/12/06 07:08:56;0.00;0.00;0.62;0.00;0.00;0.62;3.50;3.00;;;19.00;24.20;;;;;;2272773;61;20415;-62
2023/12/06 07:11:40;0.00;0.00;0.62;0.00;0.00;0.62;3.30;2.60;;;19.00;24.20;;;;;;2272311;61;20932;-61
2023/12/06 07:14:25;0.00;0.00;0.62;0.00;0.00;0.62;2.87;2.50;;;19.00;24.30;;;;;;2272431;61;20925;-55
2023/12/06 07:17:09;0.00;0.00;0.62;0.00;0.00;0.62;2.77;2.47;;;19.00;24.20;;;;;;2272459;61;20406;-59
2023/12/06 07:19:54;0.00;0.00;0.62;0.00;0.00;0.62;3.30;2.47;;;19.00;24.30;;;;;;2272588;61;20409;-57
2023/12/06 07:22:41;0.00;0.00;0.62;0.00;0.00;0.62;4.00;2.83;;;19.00;24.30;;;;;;2272275;61;20421;-57
2023/12/06 07:25:25;0.00;0.00;0.62;0.00;0.00;0.62;2.67;2.40;;;19.00;24.30;;;;;;2271951;61;20886;-58
2023/12/06 07:28:10;0.00;0.00;0.62;0.00;0.00;0.62;3.27;2.83;;;19.00;24.30;;;;;;2272719;61;20455;-61
2023/12/06 07:30:54;0.00;0.00;0.62;0.00;0.00;0.62;3.07;2.50;;;19.00;24.30;;;;;;2272596;61;20932;-52
2023/12/06 07:33:39;0.00;0.00;0.62;0.00;0.00;0.62;3.47;2.77;;;19.00;24.40;;;;;;2272107;61;20942;-58
2023/12/06 07:36:23;0.00;0.00;0.62;0.00;0.00;0.62;2.97;2.37;;;19.00;24.40;;;;;;2269486;61;20390;-58
2023/12/06 07:39:10;0.00;0.00;0.62;0.00;0.00;0.62;2.70;2.20;;;19.00;24.40;;;;;;2272224;61;20362;-58
2023/12/06 07:41:55;0.00;0.00;0.62;0.00;0.00;0.62;4.07;2.77;;;19.00;24.40;;;;;;2272225;61;20366;-56
2023/12/06 07:44:39;0.00;0.00;0.62;0.00;0.00;0.62;3.43;3.10;;;19.00;24.40;;;;;;2272551;61;20450;-58
2023/12/06 07:47:24;0.00;0.00;0.62;0.00;0.00;0.62;3.33;2.60;;;19.00;24.40;;;;;;2272168;61;20358;-58
2023/12/06 07:50:10;0.00;0.00;0.62;0.00;0.00;0.62;3.47;2.23;;;19.00;24.40;;;;;;2272467;61;20362;-59
2023/12/06 07:52:55;0.00;0.00;0.62;0.00;0.00;0.62;3.00;2.30;;;19.00;24.40;;;;;;2272149;61;21019;-55
2023/12/06 07:55:40;0.00;0.00;0.62;0.00;0.00;0.62;2.70;2.27;;;19.00;24.40;;;;;;2272525;61;20905;-58
2023/12/06 07:58:30;0.00;0.00;0.62;0.00;0.00;0.62;3.27;2.33;;;19.00;24.40;;;;;;2267802;61;20364;-52
2023/12/06 08:01:14;0.00;0.00;0.62;0.00;0.00;0.62;3.80;2.70;;;19.00;24.40;;;;;;2267980;61;20395;-56
2023/12/06 08:03:59;0.00;0.00;0.62;0.00;0.00;0.62;2.77;1.93;;;19.10;24.50;;;;;;2266596;61;20387;-57
2023/12/06 08:06:44;0.00;0.00;0.62;0.00;0.00;0.62;3.73;2.20;;;19.10;24.50;;;;;;2268551;61;20913;-54
2023/12/06 08:09:29;0.00;0.00;0.62;0.00;0.00;0.62;4.33;2.20;;;19.10;24.50;;;;;;2268742;61;20421;-58
2023/12/06 08:12:15;0.00;0.00;0.62;0.00;0.00;0.62;1.87;1.67;;;19.10;24.50;;;;;;2268970;61;20413;-58
2023/12/06 08:15:00;0.00;0.00;0.62;0.00;0.00;0.62;2.83;2.27;;;19.10;24.50;;;;;;2267909;61;20363;-59
2023/12/06 08:17:44;0.00;0.00;0.62;0.00;0.00;0.62;2.37;2.03;;;19.10;24.50;;;;;;2268644;61;20382;-59
2023/12/06 08:20:29;0.00;0.00;0.62;0.00;0.00;0.62;2.43;1.70;;;19.10;24.40;;;;;;2268095;61;20848;-56
2023/12/06 08:23:14;0.00;0.00;0.62;0.00;0.00;0.62;3.03;2.13;;;19.10;24.50;;;;;;2268428;61;20835;-54
2023/12/06 08:25:58;0.00;0.00;0.62;0.00;0.00;0.62;2.80;2.10;;;19.10;24.50;;;;;;2269009;61;20893;-54
2023/12/06 08:28:45;0.00;0.00;0.62;0.00;0.00;0.62;3.10;2.30;;;19.10;24.50;;;;;;2269067;61;20367;-55
2023/12/06 08:31:31;0.00;0.00;0.62;0.00;0.00;0.62;3.10;2.33;;;19.10;24.50;;;;;;2268537;61;20394;-56
2023/12/06 08:34:15;0.00;0.00;0.62;0.00;0.00;0.62;3.23;2.07;;;19.10;24.50;;;;;;2268958;61;20380;-59
2023/12/06 08:37:02;0.00;0.00;0.62;0.00;0.00;0.62;3.27;2.30;;;19.10;24.50;;;;;;2268853;61;20383;-53
2023/12/06 08:39:47;0.00;0.00;0.62;0.00;0.00;0.62;2.43;1.80;;;19.10;24.50;;;;;;2268587;61;20365;-56
2023/12/06 08:42:32;0.00;0.00;0.62;0.00;0.00;0.62;3.00;2.67;;;19.10;24.50;;;;;;2268488;61;20382;-57
2023/12/06 08:45:18;0.00;0.00;0.62;0.00;0.00;0.62;3.57;2.43;;;19.10;24.50;;;;;;2268866;61;20367;-56
2023/12/06 08:48:04;0.00;0.00;0.62;0.00;0.00;0.62;2.63;2.07;;;19.10;25.00;;;;;;2269332;61;20860;-57
2023/12/06 08:50:48;0.00;0.00;0.62;0.00;0.00;0.62;2.97;2.13;;;19.10;24.40;;;;;;2269401;61;20359;-58
2023/12/06 08:53:33;0.00;0.00;0.62;0.00;0.00;0.62;3.67;2.40;;;19.10;24.40;;;;;;2268309;61;20449;-56
2023/12/06 08:56:17;0.00;0.00;0.62;0.00;0.00;0.62;3.20;2.30;;;19.10;24.50;;;;;;2268333;61;20410;-58
2023/12/06 08:59:02;0.00;0.00;0.62;0.00;0.00;0.62;4.73;2.93;;;19.10;24.40;;;;;;2265672;61;20796;-56
2023/12/06 09:01:48;0.00;0.00;0.62;0.00;0.00;0.62;4.00;2.57;;;19.10;24.40;;;;;;2268346;61;20853;-54
2023/12/06 09:04:33;0.00;0.00;0.62;0.00;0.00;0.62;3.70;2.63;;;19.10;24.40;;;;;;2268907;61;20371;-56
2023/12/06 09:07:18;0.00;0.00;0.62;0.00;0.00;0.62;3.63;2.50;;;19.10;24.40;;;;;;2268975;61;20396;-61
2023/12/06 09:10:03;0.00;0.00;0.62;0.00;0.00;0.62;2.67;2.17;;;19.10;24.40;;;;;;2268984;61;20451;-59
2023/12/06 09:12:49;0.00;0.00;0.62;0.00;0.00;0.62;3.63;2.70;;;19.10;24.40;;;;;;2268483;61;20448;-58
2023/12/06 09:15:33;0.00;0.00;0.62;0.00;0.00;0.62;3.30;2.70;;;19.10;24.40;;;;;;2268497;61;20413;-58
2023/12/06 09:22:45;0.00;0.00;0.62;0.00;0.00;0.62;3.60;3.10;;;19.10;24.40;;;;;;2268149;61;20417;-56
2023/12/06 09:26:02;0.00;0.00;0.62;0.00;0.00;0.62;3.53;2.87;;;19.10;24.40;;;;;;2269076;61;20913;-59
2023/12/06 09:28:47;0.00;0.00;0.62;0.00;0.00;0.62;3.30;2.60;;;19.00;24.40;;;;;;2268933;61;20362;-58
2023/12/06 09:31:32;0.00;0.00;0.62;0.00;0.00;0.62;3.47;2.53;;;19.00;24.40;;;;;;2268336;61;20428;-62
2023/12/06 09:34:17;0.00;0.00;0.62;0.00;0.00;0.62;3.00;2.30;;;19.10;24.40;;;;;;2268825;61;20402;-56
2023/12/06 09:37:01;0.00;0.00;0.62;0.00;0.00;0.62;3.20;2.20;;;19.00;24.40;;;;;;2268481;61;20474;-58
2023/12/06 09:39:47;0.00;0.00;0.62;0.00;0.00;0.62;4.43;2.87;;;19.10;24.40;;;;;;2268714;61;20416;-59
2023/12/06 09:42:37;0.00;0.00;0.62;0.00;0.00;0.62;2.97;2.57;;;19.10;24.40;;;;;;2268634;61;20382;-59
2023/12/06 09:45:24;0.00;0.00;0.62;0.00;0.00;0.62;3.10;2.63;;;19.00;24.30;;;;;;2268339;61;20426;-57
2023/12/06 09:48:08;0.00;0.00;0.62;0.00;0.00;0.62;3.87;2.80;;;19.00;24.30;;;;;;2268863;61;20363;-62
2023/12/06 09:50:53;0.00;0.00;0.62;0.00;0.00;0.62;3.80;2.70;;;19.00;24.30;;;;;;2268764;61;20410;-58
2023/12/06 09:53:38;0.00;0.00;0.62;0.00;0.00;0.62;4.07;2.93;;;19.10;24.40;;;;;;2268080;61;20432;-60
2023/12/06 09:56:25;0.00;0.00;0.62;0.00;0.00;0.62;2.93;2.43;;;19.00;24.30;;;;;;2268626;61;21036;-63
2023/12/06 09:59:10;0.00;0.00;0.62;0.00;0.00;0.62;2.67;2.23;;;19.00;24.30;;;;;;2265474;61;20371;-58
2023/12/06 10:01:55;0.00;0.00;0.62;0.00;0.00;0.62;3.30;2.43;;;19.10;24.40;;;;;;2265252;61;20466;-56
2023/12/06 10:04:39;0.00;0.00;0.62;0.00;0.00;0.62;4.23;3.23;;;19.00;24.30;;;;;;2268873;61;20426;-62
2023/12/06 10:07:32;0.00;0.00;0.62;0.00;0.00;0.62;3.90;2.97;;;19.10;24.40;;;;;;2268287;61;20356;-60
2023/12/06 10:10:19;0.00;0.00;0.62;0.00;0.00;0.62;4.00;2.83;;;19.00;24.30;;;;;;2268692;61;20413;-55
2023/12/06 10:13:05;0.00;0.00;0.62;0.00;0.00;0.62;3.70;3.00;;;19.00;24.30;;;;;;2268352;61;21019;-56
2023/12/06 10:15:50;0.00;0.00;0.62;0.00;0.00;0.62;3.70;3.07;;;19.00;24.80;;;;;;2268557;61;20375;-57
2023/12/06 10:18:34;0.00;0.00;0.62;0.00;0.00;0.62;3.90;3.47;;;19.00;24.30;;;;;;2268606;61;20391;-61
2023/12/06 10:21:20;0.00;0.00;0.62;0.00;0.00;0.62;4.87;3.73;;;19.00;24.30;;;;;;2268727;61;20887;-55
2023/12/06 10:24:07;0.00;0.00;0.62;0.00;0.00;0.62;4.77;3.73;;;19.00;24.30;;;;;;2268846;61;20951;-59
2023/12/06 10:27:01;0.00;0.00;0.62;0.00;0.00;0.62;5.43;3.70;;;19.00;24.30;;;;;;2268522;61;20396;-55
2023/12/06 10:29:50;0.00;0.00;0.62;0.00;0.00;0.62;4.47;3.63;;;19.00;24.30;;;;;;2265057;61;20969;-57
2023/12/06 10:32:34;0.00;0.00;0.62;0.00;0.00;0.62;4.40;4.00;;;19.00;24.30;;;;;;2268104;61;20382;-57
2023/12/06 10:35:20;0.00;0.00;0.62;0.00;0.00;0.62;5.47;4.40;;;19.00;24.30;;;;;;2268673;61;20500;-58
2023/12/06 10:38:08;0.00;0.00;0.62;0.00;0.00;0.62;5.53;4.70;;;19.00;24.30;;;;;;2264684;61;20532;-60
2023/12/06 10:40:54;0.00;0.00;0.62;0.00;0.00;0.62;6.20;5.40;;;19.00;24.30;;;;;;2268585;61;20413;-57
2023/12/06 10:43:40;0.00;0.00;0.62;0.00;0.00;0.62;5.27;4.20;;;19.00;24.30;;;;;;2267846;61;20387;-61
2023/12/06 10:46:27;0.00;0.00;0.62;0.00;0.00;0.62;6.10;5.20;;;19.00;24.30;;;;;;2268427;61;20765;-56
2023/12/06 10:49:13;0.00;0.00;0.62;0.00;0.00;0.62;5.83;4.97;;;19.00;24.30;;;;;;2268598;61;20412;-53
2023/12/06 10:51:59;0.00;0.00;0.62;0.00;0.00;0.62;6.10;5.50;;;19.00;24.30;;;;;;2264472;61;20764;-60
2023/12/06 10:54:46;0.00;0.00;0.62;0.00;0.00;0.62;6.50;5.33;;;19.00;24.30;;;;;;2268591;61;20425;-59
2023/12/06 10:57:32;0.00;0.00;0.62;0.00;0.00;0.62;7.20;5.83;;;19.00;24.30;;;;;;2268338;61;20421;-60